createdAt,value
2022-11-28T00:01:37.150Z,100.00
2022-11-28T00:04:06.873Z,100.00
2022-11-28T00:06:38.096Z,100.00
2022-11-28T00:09:08.126Z,100.00
2022-11-28T00:11:35.725Z,100.00
2022-11-28T00:14:03.343Z,100.00
2022-11-28T00:16:31.547Z,100.00
2022-11-28T00:19:00.726Z,100.00
2022-11-28T00:21:30.285Z,100.00
2022-11-28T00:23:59.116Z,100.00
2022-11-28T00:26:29.825Z,100.00
2022-11-28T00:28:58.976Z,100.00
2022-11-28T00:31:34.078Z,100.00
2022-11-28T00:34:03.698Z,100.00
2022-11-28T00:36:31.394Z,100.00
2022-11-28T00:38:59.213Z,100.00
2022-11-28T00:41:31.114Z,100.00
2022-11-28T00:43:59.211Z,100.00
2022-11-28T00:46:27.455Z,100.00
2022-11-28T00:48:55.235Z,100.00
2022-11-28T00:51:27.622Z,100.00
2022-11-28T00:53:57.517Z,100.00
2022-11-28T00:56:37.889Z,100.00
2022-11-28T00:59:07.298Z,100.00
2022-11-28T01:01:40.647Z,100.00
2022-11-28T01:04:11.647Z,100.00
2022-11-28T01:06:42.569Z,100.00
2022-11-28T01:09:13.970Z,100.00
2022-11-28T01:11:43.840Z,100.00
2022-11-28T01:14:12.779Z,100.00
2022-11-28T01:16:40.913Z,100.00
2022-11-28T01:19:08.863Z,100.00
2022-11-28T01:21:36.691Z,100.00
2022-11-28T01:24:04.689Z,100.00
2022-11-28T01:26:33.065Z,100.00
2022-11-28T01:29:01.329Z,100.00
2022-11-28T01:31:30.485Z,100.00
2022-11-28T01:33:58.437Z,100.00
2022-11-28T01:36:27.238Z,100.00
2022-11-28T01:38:55.249Z,100.00
2022-11-28T01:41:26.582Z,100.00
2022-11-28T01:44:00.946Z,100.00
2022-11-28T01:46:29.824Z,100.00
2022-11-28T01:49:02.942Z,100.00
2022-11-28T01:51:31.182Z,100.00
2022-11-28T01:54:00.226Z,100.00
2022-11-28T01:56:41.408Z,100.00
2022-11-28T01:59:11.799Z,100.00
2022-11-28T02:01:40.745Z,100.00
2022-11-28T02:04:09.406Z,100.00
2022-11-28T02:06:37.211Z,100.00
2022-11-28T02:09:10.667Z,100.00
2022-11-28T02:11:52.971Z,100.00
2022-11-28T02:15:08.437Z,100.00
2022-11-28T02:18:03.356Z,100.00
2022-11-28T02:21:07.101Z,100.00
2022-11-28T02:23:37.638Z,100.00
2022-11-28T02:26:39.116Z,100.00
2022-11-28T02:29:37.888Z,100.00
2022-11-28T02:32:14.505Z,100.00
2022-11-28T02:34:48.705Z,100.00
2022-11-28T02:37:45.739Z,100.00
2022-11-28T02:40:29.432Z,100.00
2022-11-28T02:43:03.115Z,100.00
2022-11-28T02:45:43.010Z,100.00
2022-11-28T02:48:25.137Z,100.00
2022-11-28T02:51:06.789Z,100.00
2022-11-28T02:53:35.689Z,100.00
2022-11-28T02:56:04.598Z,100.00
2022-11-28T02:58:32.174Z,100.00
2022-11-28T03:01:00.561Z,100.00
2022-11-28T03:04:16.154Z,100.00
2022-11-28T03:07:07.496Z,100.00
2022-11-28T03:10:03.361Z,100.00
2022-11-28T03:12:47.696Z,100.00
2022-11-28T03:15:21.640Z,100.00
2022-11-28T03:18:04.458Z,100.00
2022-11-28T03:20:35.023Z,100.00
2022-11-28T03:23:15.240Z,100.00
2022-11-28T03:25:59.246Z,100.00
2022-11-28T03:28:43.448Z,100.00
2022-11-28T03:31:16.486Z,100.00
2022-11-28T03:33:53.928Z,100.00
2022-11-28T03:36:33.088Z,100.00
2022-11-28T03:39:09.474Z,100.00
2022-11-28T03:41:42.833Z,100.00
2022-11-28T03:44:19.251Z,100.00
2022-11-28T03:46:53.115Z,100.00
2022-11-28T03:49:31.274Z,100.00
2022-11-28T03:52:04.581Z,100.00
2022-11-28T03:54:55.682Z,100.00
2022-11-28T03:58:02.837Z,100.00
2022-11-28T04:00:31.303Z,100.00
2022-11-28T04:03:32.792Z,100.00
2022-11-28T04:06:10.618Z,100.00
2022-11-28T04:08:46.959Z,100.00
2022-11-28T04:11:28.126Z,100.00
2022-11-28T04:14:08.393Z,100.00
2022-11-28T04:16:53.609Z,100.00
2022-11-28T04:19:48.946Z,100.00
2022-11-28T04:22:38.237Z,100.00
2022-11-28T04:25:09.879Z,100.00
2022-11-28T04:27:40.214Z,100.00
2022-11-28T04:30:09.345Z,100.00
2022-11-28T04:32:41.658Z,100.00
2022-11-28T04:35:19.617Z,100.00
2022-11-28T04:37:50.270Z,100.00
2022-11-28T04:40:20.546Z,100.00
2022-11-28T04:42:53.889Z,100.00
2022-11-28T04:45:47.627Z,100.00
2022-11-28T04:48:15.345Z,100.00
2022-11-28T04:50:58.294Z,100.00
2022-11-28T04:53:35.512Z,100.00
2022-11-28T04:56:19.698Z,100.00
2022-11-28T04:58:49.706Z,100.00
2022-11-28T05:01:30.658Z,100.00
2022-11-28T05:03:58.567Z,100.00
2022-11-28T05:06:33.092Z,100.00
2022-11-28T05:09:01.132Z,100.00
2022-11-28T05:11:29.879Z,100.00
2022-11-28T05:13:57.681Z,100.00
2022-11-28T05:16:25.321Z,100.00
2022-11-28T05:18:53.246Z,100.00
2022-11-28T05:21:21.218Z,100.00
2022-11-28T05:23:49.647Z,100.00
2022-11-28T05:26:20.694Z,100.00
2022-11-28T05:28:53.352Z,100.00
2022-11-28T05:31:22.405Z,100.00
2022-11-28T05:33:51.191Z,100.00
2022-11-28T05:36:18.809Z,100.00
2022-11-28T05:38:46.616Z,100.00
2022-11-28T05:41:25.810Z,100.00
2022-11-28T05:43:55.429Z,100.00
2022-11-28T05:46:23.822Z,100.00
2022-11-28T05:48:51.521Z,100.00
2022-11-28T05:51:19.191Z,100.00
2022-11-28T05:53:46.913Z,100.00
2022-11-28T05:56:19.719Z,100.00
2022-11-28T05:58:47.816Z,100.00
2022-11-28T06:01:27.500Z,100.00
2022-11-28T06:04:00.785Z,100.00
2022-11-28T06:06:31.136Z,100.00
2022-11-28T06:08:59.203Z,100.00
2022-11-28T06:11:28.541Z,100.00
2022-11-28T06:13:56.834Z,100.00
2022-11-28T06:16:27.345Z,100.00
2022-11-28T06:18:57.038Z,100.00
2022-11-28T06:21:25.302Z,100.00
2022-11-28T06:23:53.088Z,100.00
2022-11-28T06:26:23.658Z,100.00
2022-11-28T06:28:51.337Z,100.00
2022-11-28T06:31:24.805Z,100.00
2022-11-28T06:33:52.497Z,100.00
2022-11-28T06:36:20.490Z,100.00
2022-11-28T06:38:48.596Z,100.00
2022-11-28T06:41:19.208Z,100.00
2022-11-28T06:43:47.718Z,100.00
2022-11-28T06:46:19.518Z,100.00
2022-11-28T06:48:50.070Z,100.00
2022-11-28T06:51:19.060Z,100.00
2022-11-28T06:53:46.662Z,100.00
2022-11-28T06:56:17.785Z,100.00
2022-11-28T06:58:46.156Z,100.00
2022-11-28T07:01:18.401Z,100.00
2022-11-28T07:03:47.296Z,100.00
2022-11-28T07:06:17.809Z,100.00
2022-11-28T07:08:46.794Z,100.00
2022-11-28T07:11:18.503Z,100.00
2022-11-28T07:13:48.212Z,100.00
2022-11-28T07:16:23.275Z,100.00
2022-11-28T07:18:51.537Z,100.00
2022-11-28T07:21:20.360Z,100.00
2022-11-28T07:23:48.529Z,100.00
2022-11-28T07:26:20.101Z,100.00
2022-11-28T07:28:49.256Z,100.00
2022-11-28T07:31:19.478Z,100.00
2022-11-28T07:33:49.888Z,100.00
2022-11-28T07:36:28.596Z,100.00
2022-11-28T07:38:59.186Z,100.00
2022-11-28T07:41:28.178Z,100.00
2022-11-28T07:43:58.974Z,100.00
2022-11-28T07:46:28.571Z,99.84
2022-11-28T07:48:56.682Z,98.66
2022-11-28T07:51:30.389Z,97.11
2022-11-28T07:53:58.041Z,97.04
2022-11-28T07:56:39.594Z,96.30
2022-11-28T07:59:13.161Z,94.94
2022-11-28T08:01:40.869Z,94.80
2022-11-28T08:04:10.283Z,94.10
2022-11-28T08:06:41.805Z,93.12
2022-11-28T08:09:12.085Z,94.79
2022-11-28T08:11:40.419Z,94.50
2022-11-28T08:14:08.049Z,93.91
2022-11-28T08:16:37.031Z,92.52
2022-11-28T08:19:05.187Z,93.07
2022-11-28T08:21:35.534Z,92.95
2022-11-28T08:24:04.740Z,91.90
2022-11-28T08:26:33.135Z,93.10
2022-11-28T08:29:02.098Z,93.56
2022-11-28T08:31:35.564Z,92.86
2022-11-28T08:34:06.100Z,93.43
2022-11-28T08:36:34.128Z,93.23
2022-11-28T08:39:22.295Z,92.04
2022-11-28T08:41:52.469Z,90.64
2022-11-28T08:44:20.166Z,91.07
2022-11-28T08:46:47.732Z,91.65
2022-11-28T08:49:16.108Z,89.40
2022-11-28T08:51:44.144Z,88.65
2022-11-28T08:54:12.382Z,90.50
2022-11-28T08:56:40.345Z,88.77
2022-11-28T08:59:09.668Z,87.37
2022-11-28T09:01:37.465Z,86.71
2022-11-28T09:04:05.479Z,88.01
2022-11-28T09:06:33.110Z,88.02
2022-11-28T09:09:03.053Z,88.47
2022-11-28T09:11:31.631Z,86.96
2022-11-28T09:14:00.534Z,85.86
2022-11-28T09:16:28.222Z,88.28
2022-11-28T09:18:59.596Z,88.37
2022-11-28T09:21:27.767Z,88.48
2022-11-28T09:23:56.348Z,87.63
2022-11-28T09:26:25.457Z,88.10
2022-11-28T09:28:54.011Z,89.97
2022-11-28T09:31:22.742Z,90.53
2022-11-28T09:33:50.580Z,86.96
2022-11-28T09:36:22.173Z,83.63
2022-11-28T09:38:50.583Z,87.40
2022-11-28T09:41:44.588Z,86.20
2022-11-28T09:44:14.903Z,83.99
2022-11-28T09:46:44.692Z,83.70
2022-11-28T09:49:24.486Z,80.40
2022-11-28T09:52:19.133Z,82.93
2022-11-28T09:54:56.421Z,86.22
2022-11-28T09:57:33.724Z,88.43
2022-11-28T10:00:01.912Z,87.72
2022-11-28T10:03:04.452Z,87.82
2022-11-28T10:05:37.993Z,86.43
2022-11-28T10:08:18.222Z,86.34
2022-11-28T10:10:50.442Z,86.16
2022-11-28T10:13:47.084Z,83.54
2022-11-28T10:16:33.306Z,82.30
2022-11-28T10:19:09.899Z,80.48
2022-11-28T10:21:55.103Z,78.63
2022-11-28T10:24:37.429Z,78.28
2022-11-28T10:27:06.421Z,76.54
2022-11-28T10:29:57.858Z,75.33
2022-11-28T10:32:42.593Z,76.34
2022-11-28T10:35:33.039Z,72.89
2022-11-28T10:38:01.117Z,75.17
2022-11-28T10:40:40.373Z,73.98
2022-11-28T10:44:02.935Z,75.37
2022-11-28T10:46:52.838Z,73.62
2022-11-28T10:49:20.874Z,73.19
2022-11-28T10:51:51.537Z,74.93
2022-11-28T10:54:25.070Z,77.87
2022-11-28T10:57:17.731Z,85.10
2022-11-28T11:00:06.476Z,85.05
2022-11-28T11:02:44.318Z,82.93
2022-11-28T11:05:15.850Z,84.53
2022-11-28T11:07:49.440Z,83.58
2022-11-28T11:10:37.474Z,82.92
2022-11-28T11:13:20.937Z,82.38
2022-11-28T11:15:57.708Z,81.57
2022-11-28T11:18:28.917Z,80.20
2022-11-28T11:21:15.342Z,79.15
2022-11-28T11:23:44.547Z,77.38
2022-11-28T11:26:26.149Z,74.88
2022-11-28T11:28:54.691Z,73.15
2022-11-28T11:31:26.781Z,71.86
2022-11-28T11:34:17.176Z,70.42
2022-11-28T11:36:45.359Z,71.04
2022-11-28T11:39:12.897Z,74.29
2022-11-28T11:41:45.828Z,78.12
2022-11-28T11:44:20.503Z,79.69
2022-11-28T11:46:57.642Z,85.37
2022-11-28T11:49:30.080Z,84.95
2022-11-28T11:52:00.465Z,83.34
2022-11-28T11:54:28.707Z,85.70
2022-11-28T11:57:24.973Z,84.10
2022-11-28T12:00:15.297Z,86.05
2022-11-28T12:02:57.190Z,88.07
2022-11-28T12:08:52.837Z,85.82
2022-11-28T12:11:36.542Z,86.83
2022-11-28T12:14:25.940Z,87.77
2022-11-28T12:17:46.749Z,85.61
2022-11-28T12:20:40.064Z,83.40
2022-11-28T12:23:38.376Z,85.91
2022-11-28T12:26:16.663Z,84.18
2022-11-28T12:29:02.931Z,84.12
2022-11-28T12:31:59.953Z,82.92
2022-11-28T12:34:46.354Z,81.38
2022-11-28T12:38:09.761Z,82.80
2022-11-28T12:40:44.187Z,85.60
2022-11-28T12:43:21.727Z,85.10
2022-11-28T12:45:59.878Z,84.23
2022-11-28T12:48:53.245Z,81.97
2022-11-28T12:52:05.925Z,81.35
2022-11-28T12:54:58.603Z,83.43
2022-11-28T12:58:06.999Z,82.46
2022-11-28T13:00:59.126Z,82.74
2022-11-28T13:04:03.640Z,82.95
2022-11-28T13:06:37.090Z,82.95
2022-11-28T13:09:26.011Z,86.04
2022-11-28T13:12:12.182Z,88.01
2022-11-28T13:14:51.148Z,87.70
2022-11-28T13:17:22.379Z,89.39
2022-11-28T13:20:06.904Z,90.39
2022-11-28T13:22:47.014Z,91.78
2022-11-28T13:25:33.489Z,91.63
2022-11-28T13:28:21.751Z,91.66
2022-11-28T13:30:58.844Z,91.86
2022-11-28T13:33:52.486Z,91.49
2022-11-28T13:39:33.058Z,91.08
2022-11-28T13:42:58.973Z,90.89
2022-11-28T13:45:28.408Z,93.58
2022-11-28T13:48:01.112Z,93.31
2022-11-28T13:50:28.934Z,93.07
2022-11-28T13:53:23.211Z,92.42
2022-11-28T13:56:03.725Z,92.83
2022-11-28T13:58:56.956Z,90.19
2022-11-28T14:01:44.242Z,90.82
2022-11-28T14:04:14.877Z,90.83
2022-11-28T14:06:54.565Z,91.60
2022-11-28T14:09:44.872Z,90.24
2022-11-28T14:12:19.259Z,88.29
2022-11-28T14:15:07.403Z,89.84
2022-11-28T14:18:54.484Z,87.56
2022-11-28T14:21:31.453Z,86.57
2022-11-28T14:24:25.252Z,85.05
2022-11-28T14:27:02.987Z,87.73
2022-11-28T14:29:41.795Z,85.51
2022-11-28T14:32:31.192Z,85.93
2022-11-28T14:35:01.674Z,86.22
2022-11-28T14:37:34.772Z,85.52
2022-11-28T14:40:03.709Z,84.77
2022-11-28T14:42:59.406Z,83.88
2022-11-28T14:45:44.631Z,86.82
2022-11-28T14:48:30.449Z,86.99
2022-11-28T14:51:02.058Z,86.49
2022-11-28T14:53:37.033Z,87.20
2022-11-28T14:56:24.580Z,89.22
2022-11-28T14:58:57.305Z,86.94
2022-11-28T15:01:45.961Z,87.09
2022-11-28T15:04:35.234Z,87.30
2022-11-28T15:07:10.818Z,87.76
2022-11-28T15:10:07.218Z,89.17
2022-11-28T15:13:07.637Z,90.37
2022-11-28T15:15:35.839Z,91.04
2022-11-28T15:18:04.907Z,91.74
2022-11-28T15:20:42.531Z,91.55
2022-11-28T15:23:43.241Z,92.79
2022-11-28T15:26:27.933Z,94.70
2022-11-28T15:29:19.987Z,94.68
2022-11-28T15:31:51.628Z,95.46
2022-11-28T15:34:28.033Z,95.89
2022-11-28T15:37:04.930Z,97.43
2022-11-28T15:39:35.985Z,97.84
2022-11-28T15:42:05.874Z,98.35
2022-11-28T15:44:34.888Z,97.84
2022-11-28T15:47:03.231Z,98.71
2022-11-28T15:49:33.821Z,99.26
2022-11-28T15:52:04.654Z,100.00
2022-11-28T15:54:34.551Z,100.00
2022-11-28T15:57:02.294Z,100.00
2022-11-28T15:59:30.860Z,100.00
2022-11-28T16:02:16.948Z,100.00
2022-11-28T16:04:45.772Z,100.00
2022-11-28T16:07:16.332Z,100.00
2022-11-28T16:10:01.098Z,100.00
2022-11-28T16:12:29.896Z,100.00
2022-11-28T16:15:02.022Z,100.00
2022-11-28T16:17:34.117Z,100.00
2022-11-28T16:20:03.712Z,100.00
2022-11-28T16:22:36.975Z,100.00
2022-11-28T16:25:14.335Z,100.00
2022-11-28T16:27:44.697Z,100.00
2022-11-28T16:30:33.592Z,100.00
2022-11-28T16:33:24.517Z,100.00
2022-11-28T16:35:52.192Z,100.00
2022-11-28T16:38:24.696Z,100.00
2022-11-28T16:41:01.168Z,100.00
2022-11-28T16:43:38.381Z,100.00
2022-11-28T16:46:17.142Z,100.00
2022-11-28T16:48:57.623Z,100.00
2022-11-28T16:51:30.790Z,100.00
2022-11-28T16:54:01.575Z,100.00
2022-11-28T16:56:30.122Z,100.00
2022-11-28T16:59:16.747Z,100.00
2022-11-28T17:01:47.125Z,100.00
2022-11-28T17:04:30.579Z,100.00
2022-11-28T17:07:05.227Z,100.00
2022-11-28T17:09:34.063Z,100.00
2022-11-28T17:12:27.333Z,100.00
2022-11-28T17:14:56.297Z,100.00
2022-11-28T17:17:24.710Z,100.00
2022-11-28T17:19:52.668Z,100.00
2022-11-28T17:25:07.982Z,100.00
2022-11-28T17:27:36.132Z,100.00
2022-11-28T17:30:04.191Z,100.00
2022-11-28T17:32:32.195Z,100.00
2022-11-28T17:35:04.313Z,100.00
2022-11-28T17:37:31.973Z,100.00
2022-11-28T17:40:18.183Z,100.00
2022-11-28T17:42:46.186Z,100.00
2022-11-28T17:45:15.116Z,100.00
2022-11-28T17:47:43.836Z,100.00
2022-11-28T17:50:12.621Z,100.00
2022-11-28T17:52:40.632Z,100.00
2022-11-28T17:55:09.183Z,100.00
2022-11-28T17:57:37.922Z,100.00
2022-11-28T18:00:08.025Z,100.00
2022-11-28T18:02:42.461Z,100.00
2022-11-28T18:05:10.409Z,100.00
2022-11-28T18:07:40.201Z,100.00
2022-11-28T18:10:12.138Z,100.00
2022-11-28T18:12:40.438Z,100.00
2022-11-28T18:15:10.644Z,100.00
2022-11-28T18:17:39.206Z,100.00
2022-11-28T18:20:08.591Z,100.00
2022-11-28T18:22:37.009Z,100.00
2022-11-28T18:25:08.026Z,100.00
2022-11-28T18:27:36.152Z,100.00
2022-11-28T18:30:04.634Z,100.00
2022-11-28T18:32:32.967Z,100.00
2022-11-28T18:35:03.361Z,100.00
2022-11-28T18:37:31.187Z,100.00
2022-11-28T18:39:59.125Z,100.00
2022-11-28T18:42:27.801Z,100.00
2022-11-28T18:44:55.548Z,100.00
2022-11-28T18:47:26.133Z,100.00
2022-11-28T18:49:54.616Z,100.00
2022-11-28T18:52:22.825Z,100.00
2022-11-28T18:54:51.270Z,100.00
2022-11-28T18:57:18.947Z,100.00
2022-11-28T18:59:54.249Z,100.00
2022-11-28T19:02:23.826Z,100.00
2022-11-28T19:04:53.142Z,100.00
2022-11-28T19:07:22.332Z,100.00
2022-11-28T19:09:51.162Z,100.00
2022-11-28T19:12:19.883Z,100.00
2022-11-28T19:14:48.191Z,100.00
2022-11-28T19:17:16.298Z,100.00
2022-11-28T19:19:44.861Z,100.00
2022-11-28T19:22:12.782Z,99.84
2022-11-28T19:24:46.350Z,97.83
2022-11-28T19:27:14.800Z,99.25
2022-11-28T19:29:44.418Z,99.50
2022-11-28T19:32:12.734Z,100.00
2022-11-28T19:34:40.900Z,100.00
2022-11-28T19:37:09.115Z,100.00
2022-11-28T19:39:37.200Z,100.00
2022-11-28T19:42:05.002Z,100.00
2022-11-28T19:44:33.870Z,100.00
2022-11-28T19:47:01.843Z,100.00
2022-11-28T19:49:30.057Z,100.00
2022-11-28T19:51:58.514Z,100.00
2022-11-28T19:54:26.661Z,100.00
2022-11-28T19:56:56.248Z,100.00
2022-11-28T19:59:24.147Z,100.00
2022-11-28T20:01:53.937Z,100.00
2022-11-28T20:04:23.031Z,100.00
2022-11-28T20:06:51.280Z,100.00
2022-11-28T20:09:18.993Z,100.00
2022-11-28T20:11:48.111Z,100.00
2022-11-28T20:14:20.264Z,100.00
2022-11-28T20:16:48.543Z,100.00
2022-11-28T20:19:17.879Z,100.00
2022-11-28T20:21:46.600Z,100.00
2022-11-28T20:24:16.058Z,100.00
2022-11-28T20:26:46.009Z,100.00
2022-11-28T20:29:16.193Z,100.00
2022-11-28T20:31:46.421Z,100.00
2022-11-28T20:34:18.388Z,100.00
2022-11-28T20:36:52.489Z,100.00
2022-11-28T20:39:20.267Z,100.00
2022-11-28T20:41:48.819Z,100.00
2022-11-28T20:44:19.047Z,100.00
2022-11-28T20:46:49.521Z,100.00
2022-11-28T20:49:18.360Z,100.00
2022-11-28T20:51:46.250Z,100.00
2022-11-28T20:54:14.486Z,100.00
2022-11-28T20:59:33.011Z,100.00
2022-11-28T21:02:01.193Z,100.00
2022-11-28T21:04:28.907Z,100.00
2022-11-28T21:06:56.917Z,100.00
2022-11-28T21:09:25.402Z,100.00
2022-11-28T21:11:59.029Z,100.00
2022-11-28T21:14:29.321Z,100.00
2022-11-28T21:16:58.367Z,100.00
2022-11-28T21:19:26.335Z,100.00
2022-11-28T21:21:54.478Z,100.00
2022-11-28T21:24:22.483Z,100.00
2022-11-28T21:26:53.948Z,100.00
2022-11-28T21:29:24.519Z,100.00
2022-11-28T21:31:53.642Z,100.00
2022-11-28T21:34:22.782Z,100.00
2022-11-28T21:36:50.722Z,100.00
2022-11-28T21:39:22.051Z,100.00
2022-11-28T21:41:51.174Z,100.00
2022-11-28T21:44:19.148Z,100.00
2022-11-28T21:46:46.879Z,100.00
2022-11-28T21:49:14.857Z,100.00
2022-11-28T21:51:42.578Z,100.00
2022-11-28T21:54:13.754Z,100.00
2022-11-28T21:56:42.135Z,100.00
2022-11-28T21:59:10.693Z,100.00
2022-11-28T22:01:41.578Z,100.00
2022-11-28T22:04:10.687Z,100.00
2022-11-28T22:06:40.048Z,100.00
2022-11-28T22:09:09.935Z,100.00
2022-11-28T22:11:39.645Z,100.00
2022-11-28T22:14:07.513Z,100.00
2022-11-28T22:16:36.099Z,100.00
2022-11-28T22:19:04.981Z,100.00
2022-11-28T22:24:21.578Z,100.00
2022-11-28T22:26:50.421Z,100.00
2022-11-28T22:29:19.207Z,100.00
2022-11-28T22:31:47.114Z,100.00
2022-11-28T22:34:15.962Z,100.00
2022-11-28T22:36:44.324Z,100.00
2022-11-28T22:39:12.104Z,100.00
2022-11-28T22:41:40.174Z,100.00
2022-11-28T22:44:10.609Z,100.00
2022-11-28T22:46:38.667Z,100.00
2022-11-28T22:49:07.268Z,100.00
2022-11-28T22:51:36.588Z,100.00
2022-11-28T22:54:04.782Z,100.00
2022-11-28T22:56:34.572Z,100.00
2022-11-28T22:59:05.071Z,100.00
2022-11-28T23:01:34.881Z,100.00
2022-11-28T23:04:03.758Z,100.00
2022-11-28T23:06:34.488Z,100.00
2022-11-28T23:09:08.541Z,100.00
2022-11-28T23:11:37.201Z,100.00
2022-11-28T23:14:06.060Z,100.00
2022-11-28T23:16:39.868Z,100.00
2022-11-28T23:19:12.594Z,100.00
2022-11-28T23:21:42.903Z,100.00
2022-11-28T23:24:20.285Z,100.00
2022-11-28T23:26:51.719Z,100.00
2022-11-28T23:29:20.177Z,100.00
2022-11-28T23:31:50.004Z,100.00
2022-11-28T23:34:17.824Z,100.00
2022-11-28T23:36:47.273Z,100.00
2022-11-28T23:39:19.101Z,100.00
2022-11-28T23:41:47.561Z,100.00
2022-11-28T23:44:17.183Z,100.00
2022-11-28T23:46:45.852Z,100.00
2022-11-28T23:49:14.207Z,100.00
2022-11-28T23:51:42.411Z,100.00
2022-11-28T23:54:11.467Z,100.00
2022-11-28T23:56:41.788Z,100.00
2022-11-28T23:59:11.853Z,100.00
